sensor_id;sensor_type;location;lat;lon;timestamp;pressure;altitude;pressure_sealevel;temperature
27826;BMP280;15077;49.704;9.908;2024-03-23T00:55:17;97339.19;;;15.46
27826;BMP280;15077;49.704;9.908;2024-03-23T00:57:42;97327.47;;;15.44
27826;BMP280;15077;49.704;9.908;2024-03-23T01:00:08;97316.44;;;15.43
27826;BMP280;15077;49.704;9.908;2024-03-23T01:02:36;97307.97;;;15.43
27826;BMP280;15077;49.704;9.908;2024-03-23T01:05:01;97309.81;;;15.41
27826;BMP280;15077;49.704;9.908;2024-03-23T01:07:27;97297.16;;;15.39
27826;BMP280;15077;49.704;9.908;2024-03-23T01:09:53;97299.00;;;15.37
27826;BMP280;15077;49.704;9.908;2024-03-23T01:12:18;97289.59;;;15.38
27826;BMP280;15077;49.704;9.908;2024-03-23T01:14:44;97282.88;;;15.37
27826;BMP280;15077;49.704;9.908;2024-03-23T01:17:10;97278.69;;;15.36
27826;BMP280;15077;49.704;9.908;2024-03-23T01:19:35;97276.25;;;15.34
27826;BMP280;15077;49.704;9.908;2024-03-23T01:22:01;97278.81;;;15.34
27826;BMP280;15077;49.704;9.908;2024-03-23T01:24:27;97267.78;;;15.34
27826;BMP280;15077;49.704;9.908;2024-03-23T01:26:52;97262.56;;;15.35
27826;BMP280;15077;49.704;9.908;2024-03-23T01:29:18;97262.56;;;15.35
27826;BMP280;15077;49.704;9.908;2024-03-23T01:31:43;97254.91;;;15.35
27826;BMP280;15077;49.704;9.908;2024-03-23T01:34:09;97252.47;;;15.34
27826;BMP280;15077;49.704;9.908;2024-03-23T01:36:34;97240.63;;;15.33
27826;BMP280;15077;49.704;9.908;2024-03-23T01:39:00;97240.63;;;15.33
27826;BMP280;15077;49.704;9.908;2024-03-23T01:41:26;97230.28;;;15.34
27826;BMP280;15077;49.704;9.908;2024-03-23T01:43:53;97230.19;;;15.36
27826;BMP280;15077;49.704;9.908;2024-03-23T01:46:20;97231.81;;;15.37
27826;BMP280;15077;49.704;9.908;2024-03-23T01:48:46;97225.06;;;15.36
27826;BMP280;15077;49.704;9.908;2024-03-23T01:51:12;97223.22;;;15.38
27826;BMP280;15077;49.704;9.908;2024-03-23T01:53:38;97217.19;;;15.39
27826;BMP280;15077;49.704;9.908;2024-03-23T01:56:04;97214.66;;;15.39
27826;BMP280;15077;49.704;9.908;2024-03-23T01:58:30;97213.84;;;15.38
27826;BMP280;15077;49.704;9.908;2024-03-23T02:00:57;97203.75;;;15.37
27826;BMP280;15077;49.704;9.908;2024-03-23T02:03:24;97196.78;;;15.39
27826;BMP280;15077;49.704;9.908;2024-03-23T02:05:51;97200.97;;;15.40
27826;BMP280;15077;49.704;9.908;2024-03-23T02:08:18;97205.13;;;15.41
27826;BMP280;15077;49.704;9.908;2024-03-23T02:10:45;97203.41;;;15.41
27826;BMP280;15077;49.704;9.908;2024-03-23T02:13:11;97197.47;;;15.41
27826;BMP280;15077;49.704;9.908;2024-03-23T02:15:39;97193.31;;;15.40
27826;BMP280;15077;49.704;9.908;2024-03-23T02:18:06;97181.56;;;15.37
27826;BMP280;15077;49.704;9.908;2024-03-23T02:20:32;97192.59;;;15.38
27826;BMP280;15077;49.704;9.908;2024-03-23T02:22:57;97185.03;;;15.36
27826;BMP280;15077;49.704;9.908;2024-03-23T02:25:26;97156.16;;;15.36
27826;BMP280;15077;49.704;9.908;2024-03-23T02:27:51;97151.03;;;15.36
27826;BMP280;15077;49.704;9.908;2024-03-23T02:30:19;97138.28;;;15.36
27826;BMP280;15077;49.704;9.908;2024-03-23T02:32:45;97136.41;;;15.38
27826;BMP280;15077;49.704;9.908;2024-03-23T02:35:11;97130.63;;;15.36
27826;BMP280;15077;49.704;9.908;2024-03-23T02:37:37;97140.84;;;15.36
27826;BMP280;15077;49.704;9.908;2024-03-23T02:40:03;97137.38;;;15.37
27826;BMP280;15077;49.704;9.908;2024-03-23T02:42:28;97133.97;;;15.36
27826;BMP280;15077;49.704;9.908;2024-03-23T02:44:54;97133.88;;;15.38
27826;BMP280;15077;49.704;9.908;2024-03-23T02:47:20;97121.22;;;15.36
27826;BMP280;15077;49.704;9.908;2024-03-23T02:49:45;97123.75;;;15.36
27826;BMP280;15077;49.704;9.908;2024-03-23T02:52:11;97112.53;;;15.39
27826;BMP280;15077;49.704;9.908;2024-03-23T02:54:37;97104.97;;;15.37
27826;BMP280;15077;49.704;9.908;2024-03-23T02:57:02;97119.72;;;15.34
27826;BMP280;15077;49.704;9.908;2024-03-23T02:59:28;97102.88;;;15.31
27826;BMP280;15077;49.704;9.908;2024-03-23T03:01:54;97108.91;;;15.30
27826;BMP280;15077;49.704;9.908;2024-03-23T03:04:19;97113.22;;;15.30
27826;BMP280;15077;49.704;9.908;2024-03-23T03:06:49;97111.47;;;15.30
27826;BMP280;15077;49.704;9.908;2024-03-23T03:09:14;97108.09;;;15.30
27826;BMP280;15077;49.704;9.908;2024-03-23T03:11:40;97094.66;;;15.28
27826;BMP280;15077;49.704;9.908;2024-03-23T03:14:06;97085.00;;;15.31
27826;BMP280;15077;49.704;9.908;2024-03-23T03:16:33;97086.53;;;15.34
27826;BMP280;15077;49.704;9.908;2024-03-23T03:18:59;97083.75;;;15.37
27826;BMP280;15077;49.704;9.908;2024-03-23T03:21:25;97087.00;;;15.39
27826;BMP280;15077;49.704;9.908;2024-03-23T03:23:50;97080.13;;;15.39
27826;BMP280;15077;49.704;9.908;2024-03-23T03:26:17;97078.41;;;15.40
27826;BMP280;15077;49.704;9.908;2024-03-23T03:28:43;97071.56;;;15.40
27826;BMP280;15077;49.704;9.908;2024-03-23T03:31:17;97068.78;;;15.43
27826;BMP280;15077;49.704;9.908;2024-03-23T03:33:44;97069.56;;;15.44
27826;BMP280;15077;49.704;9.908;2024-03-23T03:36:10;97084.91;;;15.44
27826;BMP280;15077;49.704;9.908;2024-03-23T03:38:35;97091.63;;;15.45
27826;BMP280;15077;49.704;9.908;2024-03-23T03:41:02;97096.75;;;15.45
27826;BMP280;15077;49.704;9.908;2024-03-23T03:43:27;97067.13;;;15.42
27826;BMP280;15077;49.704;9.908;2024-03-23T03:45:57;97056.94;;;15.42
27826;BMP280;15077;49.704;9.908;2024-03-23T03:48:23;97049.38;;;15.41
27826;BMP280;15077;49.704;9.908;2024-03-23T03:50:49;97049.38;;;15.41
27826;BMP280;15077;49.704;9.908;2024-03-23T03:53:14;97043.47;;;15.40
27826;BMP280;15077;49.704;9.908;2024-03-23T03:55:40;97044.41;;;15.39
27826;BMP280;15077;49.704;9.908;2024-03-23T03:58:07;97055.44;;;15.40
27826;BMP280;15077;49.704;9.908;2024-03-23T04:00:33;97047.78;;;15.40
27826;BMP280;15077;49.704;9.908;2024-03-23T04:02:58;97047.78;;;15.40
27826;BMP280;15077;49.704;9.908;2024-03-23T04:05:24;97046.03;;;15.40
27826;BMP280;15077;49.704;9.908;2024-03-23T04:07:50;97046.81;;;15.41
27826;BMP280;15077;49.704;9.908;2024-03-23T04:10:28;97033.16;;;15.42
27826;BMP280;15077;49.704;9.908;2024-03-23T04:12:55;97030.59;;;15.42
27826;BMP280;15077;49.704;9.908;2024-03-23T04:15:21;97032.00;;;15.46
27826;BMP280;15077;49.704;9.908;2024-03-23T04:17:47;97035.34;;;15.46
27826;BMP280;15077;49.704;9.908;2024-03-23T04:20:13;97025.03;;;15.48
27826;BMP280;15077;49.704;9.908;2024-03-23T04:22:42;97014.81;;;15.48
27826;BMP280;15077;49.704;9.908;2024-03-23T04:25:08;97009.69;;;15.48
27826;BMP280;15077;49.704;9.908;2024-03-23T04:27:39;97004.59;;;15.48
27826;BMP280;15077;49.704;9.908;2024-03-23T04:30:05;96990.19;;;15.47
27826;BMP280;15077;49.704;9.908;2024-03-23T04:32:57;96994.38;;;15.48
27826;BMP280;15077;49.704;9.908;2024-03-23T04:38:46;96999.97;;;15.42
27826;BMP280;15077;49.704;9.908;2024-03-23T04:41:15;96980.22;;;15.44
27826;BMP280;15077;49.704;9.908;2024-03-23T04:43:40;96977.78;;;15.42
27826;BMP280;15077;49.704;9.908;2024-03-23T04:46:06;96984.63;;;15.42
27826;BMP280;15077;49.704;9.908;2024-03-23T04:48:32;96989.75;;;15.42
27826;BMP280;15077;49.704;9.908;2024-03-23T04:50:58;96978.72;;;15.41
27826;BMP280;15077;49.704;9.908;2024-03-23T04:53:24;96984.06;;;15.38
27826;BMP280;15077;49.704;9.908;2024-03-23T04:55:56;96986.75;;;15.37
27826;BMP280;15077;49.704;9.908;2024-03-23T04:58:22;96978.38;;;15.35
27826;BMP280;15077;49.704;9.908;2024-03-23T05:00:53;96977.44;;;15.36
27826;BMP280;15077;49.704;9.908;2024-03-23T05:03:19;96974.09;;;15.35
27826;BMP280;15077;49.704;9.908;2024-03-23T05:05:49;96964.69;;;15.36
27826;BMP280;15077;49.704;9.908;2024-03-23T05:08:18;96948.56;;;15.35
27826;BMP280;15077;49.704;9.908;2024-03-23T05:10:44;96946.13;;;15.34
27826;BMP280;15077;49.704;9.908;2024-03-23T05:13:10;96963.28;;;15.32
27826;BMP280;15077;49.704;9.908;2024-03-23T05:15:35;96962.72;;;15.28
27826;BMP280;15077;49.704;9.908;2024-03-23T05:18:01;96948.56;;;15.24
27826;BMP280;15077;49.704;9.908;2024-03-23T05:20:27;96941.97;;;15.22
27826;BMP280;15077;49.704;9.908;2024-03-23T05:22:54;96947.06;;;15.22
27826;BMP280;15077;49.704;9.908;2024-03-23T05:25:20;96949.75;;;15.20
27826;BMP280;15077;49.704;9.908;2024-03-23T05:27:46;96968.66;;;15.18
27826;BMP280;15077;49.704;9.908;2024-03-23T05:30:11;96965.25;;;15.17
27826;BMP280;15077;49.704;9.908;2024-03-23T05:32:37;96977.09;;;15.18
27826;BMP280;15077;49.704;9.908;2024-03-23T05:35:06;96984.84;;;15.17
27826;BMP280;15077;49.704;9.908;2024-03-23T05:37:33;96967.09;;;15.15
27826;BMP280;15077;49.704;9.908;2024-03-23T05:40:00;96961.19;;;15.15
27826;BMP280;15077;49.704;9.908;2024-03-23T05:42:25;96959.56;;;15.14
27826;BMP280;15077;49.704;9.908;2024-03-23T05:44:51;96947.72;;;15.13
27826;BMP280;15077;49.704;9.908;2024-03-23T05:47:17;96968.97;;;15.13
27826;BMP280;15077;49.704;9.908;2024-03-23T05:49:43;96968.97;;;15.13
27826;BMP280;15077;49.704;9.908;2024-03-23T05:52:09;96953.53;;;15.15
27826;BMP280;15077;49.704;9.908;2024-03-23T05:54:38;96964.44;;;15.17
27826;BMP280;15077;49.704;9.908;2024-03-23T05:57:04;96972.72;;;15.20
27826;BMP280;15077;49.704;9.908;2024-03-23T05:59:30;96985.25;;;15.23
27826;BMP280;15077;49.704;9.908;2024-03-23T06:01:56;96987.56;;;15.26
27826;BMP280;15077;49.704;9.908;2024-03-23T06:04:22;97003.44;;;15.30
27826;BMP280;15077;49.704;9.908;2024-03-23T06:06:48;96999.03;;;15.32
27826;BMP280;15077;49.704;9.908;2024-03-23T06:09:14;96995.56;;;15.33
27826;BMP280;15077;49.704;9.908;2024-03-23T06:11:39;97004.97;;;15.32
27826;BMP280;15077;49.704;9.908;2024-03-23T06:14:05;97029.44;;;15.35
27826;BMP280;15077;49.704;9.908;2024-03-23T06:16:31;97028.97;;;15.30
27826;BMP280;15077;49.704;9.908;2024-03-23T06:18:57;97035.22;;;15.26
27826;BMP280;15077;49.704;9.908;2024-03-23T06:21:23;97045.66;;;15.23
27826;BMP280;15077;49.704;9.908;2024-03-23T06:23:51;97053.66;;;15.18
27826;BMP280;15077;49.704;9.908;2024-03-23T06:26:18;97048.19;;;15.12
27826;BMP280;15077;49.704;9.908;2024-03-23T06:28:44;97058.84;;;15.06
27826;BMP280;15077;49.704;9.908;2024-03-23T06:31:11;97065.31;;;14.99
27826;BMP280;15077;49.704;9.908;2024-03-23T06:33:42;97060.44;;;14.96
27826;BMP280;15077;49.704;9.908;2024-03-23T06:36:11;97071.78;;;14.92
27826;BMP280;15077;49.704;9.908;2024-03-23T06:38:37;97072.75;;;14.91
27826;BMP280;15077;49.704;9.908;2024-03-23T06:41:04;97090.59;;;14.91
27826;BMP280;15077;49.704;9.908;2024-03-23T06:43:30;97085.50;;;14.91
27826;BMP280;15077;49.704;9.908;2024-03-23T06:45:56;97105.91;;;14.91
27826;BMP280;15077;49.704;9.908;2024-03-23T06:48:22;97112.13;;;14.87
27826;BMP280;15077;49.704;9.908;2024-03-23T06:50:48;97120.94;;;14.83
27826;BMP280;15077;49.704;9.908;2024-03-23T06:53:14;97128.34;;;14.75
27826;BMP280;15077;49.704;9.908;2024-03-23T06:55:40;97129.09;;;14.65
27826;BMP280;15077;49.704;9.908;2024-03-23T06:58:07;97132.41;;;14.55
27826;BMP280;15077;49.704;9.908;2024-03-23T07:00:32;97138.38;;;14.43
27826;BMP280;15077;49.704;9.908;2024-03-23T07:02:59;97150.03;;;14.34
27826;BMP280;15077;49.704;9.908;2024-03-23T07:05:24;97158.91;;;14.29
27826;BMP280;15077;49.704;9.908;2024-03-23T07:07:50;97173.72;;;14.24
27826;BMP280;15077;49.704;9.908;2024-03-23T07:10:16;97171.59;;;14.18
27826;BMP280;15077;49.704;9.908;2024-03-23T07:12:41;97191.44;;;14.13
27826;BMP280;15077;49.704;9.908;2024-03-23T07:15:07;97190.25;;;14.06
27826;BMP280;15077;49.704;9.908;2024-03-23T07:17:33;97191.66;;;13.98
27826;BMP280;15077;49.704;9.908;2024-03-23T07:20:03;97206.56;;;13.91
27826;BMP280;15077;49.704;9.908;2024-03-23T07:22:30;97213.06;;;13.83
27826;BMP280;15077;49.704;9.908;2024-03-23T07:24:59;97227.03;;;13.77
27826;BMP280;15077;49.704;9.908;2024-03-23T07:27:25;97235.25;;;13.68
27826;BMP280;15077;49.704;9.908;2024-03-23T07:29:51;97237.72;;;13.57
27826;BMP280;15077;49.704;9.908;2024-03-23T07:32:17;97250.09;;;13.50
27826;BMP280;15077;49.704;9.908;2024-03-23T07:34:42;97258.13;;;13.44
27826;BMP280;15077;49.704;9.908;2024-03-23T07:37:10;97264.56;;;13.37
27826;BMP280;15077;49.704;9.908;2024-03-23T07:39:36;97280.19;;;13.31
27826;BMP280;15077;49.704;9.908;2024-03-23T07:42:02;97281.41;;;13.25
27826;BMP280;15077;49.704;9.908;2024-03-23T07:44:28;97294.44;;;13.21
27826;BMP280;15077;49.704;9.908;2024-03-23T07:46:53;97297.88;;;13.20
27826;BMP280;15077;49.704;9.908;2024-03-23T07:49:19;97298.97;;;13.16
27826;BMP280;15077;49.704;9.908;2024-03-23T07:51:44;97312.81;;;13.12
27826;BMP280;15077;49.704;9.908;2024-03-23T07:54:10;97326.13;;;13.03
27826;BMP280;15077;49.704;9.908;2024-03-23T07:56:36;97339.91;;;12.99
27826;BMP280;15077;49.704;9.908;2024-03-23T07:59:01;97340.13;;;12.96
27826;BMP280;15077;49.704;9.908;2024-03-23T08:01:28;97338.47;;;12.95
27826;BMP280;15077;49.704;9.908;2024-03-23T08:03:54;97357.00;;;12.97
27826;BMP280;15077;49.704;9.908;2024-03-23T08:06:20;97375.72;;;12.96
27826;BMP280;15077;49.704;9.908;2024-03-23T08:08:54;97361.44;;;12.94
27826;BMP280;15077;49.704;9.908;2024-03-23T08:11:27;97381.19;;;12.90
27826;BMP280;15077;49.704;9.908;2024-03-23T08:13:53;97388.25;;;12.85
27826;BMP280;15077;49.704;9.908;2024-03-23T08:16:18;97407.13;;;12.81
27826;BMP280;15077;49.704;9.908;2024-03-23T08:18:44;97413.28;;;12.77
27826;BMP280;15077;49.704;9.908;2024-03-23T08:21:10;97411.84;;;12.73
27826;BMP280;15077;49.704;9.908;2024-03-23T08:23:36;97421.09;;;12.74
27826;BMP280;15077;49.704;9.908;2024-03-23T08:26:05;97434.72;;;12.73
27826;BMP280;15077;49.704;9.908;2024-03-23T08:28:31;97437.34;;;12.72
27826;BMP280;15077;49.704;9.908;2024-03-23T08:30:57;97429.63;;;12.73
27826;BMP280;15077;49.704;9.908;2024-03-23T08:33:25;97446.53;;;12.74
27826;BMP280;15077;49.704;9.908;2024-03-23T08:35:59;97457.31;;;12.78
27826;BMP280;15077;49.704;9.908;2024-03-23T08:38:26;97458.88;;;12.80
27826;BMP280;15077;49.704;9.908;2024-03-23T08:41:06;97457.84;;;12.84
27826;BMP280;15077;49.704;9.908;2024-03-23T08:43:33;97462.00;;;12.85
27826;BMP280;15077;49.704;9.908;2024-03-23T08:46:06;97462.75;;;12.87
27826;BMP280;15077;49.704;9.908;2024-03-23T08:48:33;97471.84;;;12.91
27826;BMP280;15077;49.704;9.908;2024-03-23T08:51:00;97478.25;;;12.97
27826;BMP280;15077;49.704;9.908;2024-03-23T08:53:29;97474.72;;;12.99
27826;BMP280;15077;49.704;9.908;2024-03-23T08:55:56;97478.00;;;13.01
27826;BMP280;15077;49.704;9.908;2024-03-23T08:58:24;97493.06;;;13.04
27826;BMP280;15077;49.704;9.908;2024-03-23T09:00:53;97498.16;;;13.04
27826;BMP280;15077;49.704;9.908;2024-03-23T09:03:22;97500.78;;;13.03
27826;BMP280;15077;49.704;9.908;2024-03-23T09:05:49;97513.59;;;13.01
27826;BMP280;15077;49.704;9.908;2024-03-23T09:08:14;97505.34;;;12.98
27826;BMP280;15077;49.704;9.908;2024-03-23T09:10:40;97514.72;;;12.97
27826;BMP280;15077;49.704;9.908;2024-03-23T09:13:06;97515.53;;;12.98
27826;BMP280;15077;49.704;9.908;2024-03-23T09:15:37;97532.44;;;12.99
27826;BMP280;15077;49.704;9.908;2024-03-23T09:18:03;97542.50;;;13.00
27826;BMP280;15077;49.704;9.908;2024-03-23T09:20:32;97552.84;;;12.97
27826;BMP280;15077;49.704;9.908;2024-03-23T09:22:58;97552.28;;;12.92
27826;BMP280;15077;49.704;9.908;2024-03-23T09:25:24;97549.22;;;12.87
27826;BMP280;15077;49.704;9.908;2024-03-23T09:27:50;97557.00;;;12.84
27826;BMP280;15077;49.704;9.908;2024-03-23T09:30:16;97557.81;;;12.85
27826;BMP280;15077;49.704;9.908;2024-03-23T09:32:43;97566.25;;;12.85
27826;BMP280;15077;49.704;9.908;2024-03-23T09:35:10;97559.38;;;12.87
27826;BMP280;15077;49.704;9.908;2024-03-23T09:37:36;97554.19;;;12.89
27826;BMP280;15077;49.704;9.908;2024-03-23T09:40:02;97548.75;;;12.95
27826;BMP280;15077;49.704;9.908;2024-03-23T09:42:41;97552.69;;;13.00
27826;BMP280;15077;49.704;9.908;2024-03-23T09:45:17;97554.88;;;13.06
27826;BMP280;15077;49.704;9.908;2024-03-23T09:47:45;97547.59;;;13.14
27826;BMP280;15077;49.704;9.908;2024-03-23T09:50:12;97553.13;;;13.20
27826;BMP280;15077;49.704;9.908;2024-03-23T09:52:38;97560.41;;;13.26
27826;BMP280;15077;49.704;9.908;2024-03-23T09:55:04;97556.69;;;13.32
27826;BMP280;15077;49.704;9.908;2024-03-23T09:57:30;97565.88;;;13.34
27826;BMP280;15077;49.704;9.908;2024-03-23T09:59:55;97568.41;;;13.34
27826;BMP280;15077;49.704;9.908;2024-03-23T10:02:24;97575.41;;;13.31
27826;BMP280;15077;49.704;9.908;2024-03-23T10:04:49;97574.13;;;13.24
27826;BMP280;15077;49.704;9.908;2024-03-23T10:07:18;97578.66;;;13.19
27826;BMP280;15077;49.704;9.908;2024-03-23T10:09:45;97573.03;;;13.14
27826;BMP280;15077;49.704;9.908;2024-03-23T10:12:12;97567.94;;;13.14
27826;BMP280;15077;49.704;9.908;2024-03-23T10:14:42;97568.75;;;13.14
27826;BMP280;15077;49.704;9.908;2024-03-23T10:17:22;97582.84;;;13.20
27826;BMP280;15077;49.704;9.908;2024-03-23T10:19:52;97592.03;;;13.22
27826;BMP280;15077;49.704;9.908;2024-03-23T10:22:19;97593.56;;;13.25
27826;BMP280;15077;49.704;9.908;2024-03-23T10:24:45;97582.31;;;13.29
27826;BMP280;15077;49.704;9.908;2024-03-23T10:27:16;97571.84;;;13.33
27826;BMP280;15077;49.704;9.908;2024-03-23T10:29:43;97573.94;;;13.41
27826;BMP280;15077;49.704;9.908;2024-03-23T10:32:10;97574.22;;;13.50
27826;BMP280;15077;49.704;9.908;2024-03-23T10:34:37;97585.38;;;13.61
27826;BMP280;15077;49.704;9.908;2024-03-23T10:37:04;97583.03;;;13.72
27826;BMP280;15077;49.704;9.908;2024-03-23T10:39:34;97582.28;;;13.84
27826;BMP280;15077;49.704;9.908;2024-03-23T10:42:02;97576.63;;;13.93
27826;BMP280;15077;49.704;9.908;2024-03-23T10:44:29;97584.25;;;14.07
27826;BMP280;15077;49.704;9.908;2024-03-23T10:46:57;97588.16;;;14.12
27826;BMP280;15077;49.704;9.908;2024-03-23T10:49:30;97579.41;;;14.16
27826;BMP280;15077;49.704;9.908;2024-03-23T10:52:04;97571.56;;;14.19
27826;BMP280;15077;49.704;9.908;2024-03-23T10:54:31;97571.47;;;14.21
27826;BMP280;15077;49.704;9.908;2024-03-23T10:59:33;97565.81;;;14.30
27826;BMP280;15077;49.704;9.908;2024-03-23T11:02:01;97570.31;;;14.39
27826;BMP280;15077;49.704;9.908;2024-03-23T11:04:33;97563.91;;;14.46
27826;BMP280;15077;49.704;9.908;2024-03-23T11:07:03;97576.09;;;14.55
27826;BMP280;15077;49.704;9.908;2024-03-23T11:09:41;97577.09;;;14.64
27826;BMP280;15077;49.704;9.908;2024-03-23T11:14:47;97563.88;;;14.84
27826;BMP280;15077;49.704;9.908;2024-03-23T11:17:23;97560.03;;;14.91
27826;BMP280;15077;49.704;9.908;2024-03-23T11:20:07;97568.19;;;14.96
27826;BMP280;15077;49.704;9.908;2024-03-23T11:22:44;97576.53;;;14.98
27826;BMP280;15077;49.704;9.908;2024-03-23T11:25:15;97570.63;;;14.98
27826;BMP280;15077;49.704;9.908;2024-03-23T11:27:45;97571.44;;;14.98
27826;BMP280;15077;49.704;9.908;2024-03-23T11:32:37;97558.38;;;14.90
27826;BMP280;15077;49.704;9.908;2024-03-23T11:35:03;97554.28;;;14.88
27826;BMP280;15077;49.704;9.908;2024-03-23T11:37:28;97554.38;;;14.86
27826;BMP280;15077;49.704;9.908;2024-03-23T11:39:54;97547.56;;;14.87
27826;BMP280;15077;49.704;9.908;2024-03-23T11:42:20;97541.53;;;14.88
27826;BMP280;15077;49.704;9.908;2024-03-23T11:44:47;97545.03;;;14.87
27826;BMP280;15077;49.704;9.908;2024-03-23T11:47:12;97544.28;;;14.85
27826;BMP280;15077;49.704;9.908;2024-03-23T11:49:38;97545.31;;;14.82
27826;BMP280;15077;49.704;9.908;2024-03-23T11:52:07;97527.13;;;14.74
27826;BMP280;15077;49.704;9.908;2024-03-23T11:54:33;97523.69;;;14.75
27826;BMP280;15077;49.704;9.908;2024-03-23T11:57:00;97519.81;;;14.82
27826;BMP280;15077;49.704;9.908;2024-03-23T11:59:44;97519.22;;;14.91
27826;BMP280;15077;49.704;9.908;2024-03-23T12:02:12;97504.19;;;14.99
27826;BMP280;15077;49.704;9.908;2024-03-23T12:04:40;97508.38;;;15.12
27826;BMP280;15077;49.704;9.908;2024-03-23T12:07:13;97501.66;;;15.24
27826;BMP280;15077;49.704;9.908;2024-03-23T12:09:39;97513.78;;;15.33
27826;BMP280;15077;49.704;9.908;2024-03-23T12:12:14;97524.28;;;15.41
27826;BMP280;15077;49.704;9.908;2024-03-23T12:14:41;97513.88;;;15.44
27826;BMP280;15077;49.704;9.908;2024-03-23T12:17:14;97504.38;;;15.46
27826;BMP280;15077;49.704;9.908;2024-03-23T12:19:41;97508.13;;;15.52
27826;BMP280;15077;49.704;9.908;2024-03-23T12:22:10;97496.78;;;15.56
27826;BMP280;15077;49.704;9.908;2024-03-23T12:24:35;97506.28;;;15.54
27826;BMP280;15077;49.704;9.908;2024-03-23T12:27:05;97513.75;;;15.57
27826;BMP280;15077;49.704;9.908;2024-03-23T12:29:31;97502.59;;;15.58
27826;BMP280;15077;49.704;9.908;2024-03-23T12:32:01;97513.75;;;15.57
27826;BMP280;15077;49.704;9.908;2024-03-23T12:34:27;97488.91;;;15.59
27826;BMP280;15077;49.704;9.908;2024-03-23T12:36:53;97491.94;;;15.64
27826;BMP280;15077;49.704;9.908;2024-03-23T12:39:19;97498.47;;;15.68
27826;BMP280;15077;49.704;9.908;2024-03-23T12:41:48;97497.56;;;15.69
27826;BMP280;15077;49.704;9.908;2024-03-23T12:44:14;97521.25;;;15.71
27826;BMP280;15077;49.704;9.908;2024-03-23T12:46:41;97534.47;;;15.65
27826;BMP280;15077;49.704;9.908;2024-03-23T12:49:07;97537.53;;;15.58
27826;BMP280;15077;49.704;9.908;2024-03-23T12:51:33;97541.63;;;15.48
27826;BMP280;15077;49.704;9.908;2024-03-23T12:53:59;97546.47;;;15.40
27826;BMP280;15077;49.704;9.908;2024-03-23T12:56:25;97546.06;;;15.34
27826;BMP280;15077;49.704;9.908;2024-03-23T12:58:50;97535.53;;;15.26
27826;BMP280;15077;49.704;9.908;2024-03-23T13:01:20;97525.75;;;15.20
27826;BMP280;15077;49.704;9.908;2024-03-23T13:03:49;97531.59;;;15.22
27826;BMP280;15077;49.704;9.908;2024-03-23T13:06:16;97527.50;;;15.19
27826;BMP280;15077;49.704;9.908;2024-03-23T13:08:47;97532.69;;;15.18
27826;BMP280;15077;49.704;9.908;2024-03-23T13:11:15;97525.22;;;15.15
27826;BMP280;15077;49.704;9.908;2024-03-23T13:13:41;97520.13;;;15.15
27826;BMP280;15077;49.704;9.908;2024-03-23T13:16:07;97519.84;;;15.19
27826;BMP280;15077;49.704;9.908;2024-03-23T13:18:33;97511.75;;;15.25
27826;BMP280;15077;49.704;9.908;2024-03-23T13:20:59;97512.78;;;15.35
27826;BMP280;15077;49.704;9.908;2024-03-23T13:23:25;97518.97;;;15.44
27826;BMP280;15077;49.704;9.908;2024-03-23T13:25:51;97523.66;;;15.50
27826;BMP280;15077;49.704;9.908;2024-03-23T13:28:21;97514.28;;;15.50
27826;BMP280;15077;49.704;9.908;2024-03-23T13:30:56;97514.06;;;15.53
27826;BMP280;15077;49.704;9.908;2024-03-23T13:33:23;97504.66;;;15.53
27826;BMP280;15077;49.704;9.908;2024-03-23T13:35:55;97506.28;;;15.54
27826;BMP280;15077;49.704;9.908;2024-03-23T13:38:22;97511.63;;;15.52
27826;BMP280;15077;49.704;9.908;2024-03-23T13:40:58;97512.75;;;15.48
27826;BMP280;15077;49.704;9.908;2024-03-23T13:43:25;97514.50;;;15.47
27826;BMP280;15077;49.704;9.908;2024-03-23T13:45:55;97507.75;;;15.46
27826;BMP280;15077;49.704;9.908;2024-03-23T13:48:23;97507.03;;;15.44
27826;BMP280;15077;49.704;9.908;2024-03-23T13:50:59;97511.84;;;15.36
27826;BMP280;15077;49.704;9.908;2024-03-23T13:53:25;97501.34;;;15.28
27826;BMP280;15077;49.704;9.908;2024-03-23T13:55:51;97500.75;;;15.25
27826;BMP280;15077;49.704;9.908;2024-03-23T13:58:17;97512.06;;;15.21
27826;BMP280;15077;49.704;9.908;2024-03-23T14:00:43;97515.81;;;15.15
27826;BMP280;15077;49.704;9.908;2024-03-23T14:03:09;97498.97;;;15.13
27826;BMP280;15077;49.704;9.908;2024-03-23T14:05:36;97490.50;;;15.12
27826;BMP280;15077;49.704;9.908;2024-03-23T14:08:08;97486.00;;;15.16
27826;BMP280;15077;49.704;9.908;2024-03-23T14:10:34;97495.22;;;15.18
27826;BMP280;15077;49.704;9.908;2024-03-23T14:13:01;97483.25;;;15.19
27826;BMP280;15077;49.704;9.908;2024-03-23T14:15:27;97479.97;;;15.17
27826;BMP280;15077;49.704;9.908;2024-03-23T14:17:53;97472.44;;;15.15
27826;BMP280;15077;49.704;9.908;2024-03-23T14:20:20;97460.47;;;15.16
27826;BMP280;15077;49.704;9.908;2024-03-23T14:22:47;97474.81;;;15.18
27826;BMP280;15077;49.704;9.908;2024-03-23T14:25:13;97479.97;;;15.17
27826;BMP280;15077;49.704;9.908;2024-03-23T14:27:40;97478.75;;;15.10
27826;BMP280;15077;49.704;9.908;2024-03-23T14:30:06;97481.72;;;15.04
27826;BMP280;15077;49.704;9.908;2024-03-23T14:32:32;97472.66;;;15.00
27826;BMP280;15077;49.704;9.908;2024-03-23T14:35:03;97464.69;;;14.92
27826;BMP280;15077;49.704;9.908;2024-03-23T14:37:28;97457.44;;;14.86
27826;BMP280;15077;49.704;9.908;2024-03-23T14:39:58;97448.50;;;14.81
27826;BMP280;15077;49.704;9.908;2024-03-23T14:42:23;97442.06;;;14.75
27826;BMP280;15077;49.704;9.908;2024-03-23T14:44:50;97448.28;;;14.71
27826;BMP280;15077;49.704;9.908;2024-03-23T14:47:15;97441.94;;;14.64
27826;BMP280;15077;49.704;9.908;2024-03-23T14:49:43;97443.06;;;14.60
27826;BMP280;15077;49.704;9.908;2024-03-23T14:52:15;97455.28;;;14.55
27826;BMP280;15077;49.704;9.908;2024-03-23T14:54:40;97449.78;;;14.49
27826;BMP280;15077;49.704;9.908;2024-03-23T14:57:06;97454.28;;;14.46
27826;BMP280;15077;49.704;9.908;2024-03-23T14:59:35;97441.63;;;14.44
27826;BMP280;15077;49.704;9.908;2024-03-23T15:02:01;97453.66;;;14.42
27826;BMP280;15077;49.704;9.908;2024-03-23T15:04:26;97449.59;;;14.40
27826;BMP280;15077;49.704;9.908;2024-03-23T15:06:52;97437.75;;;14.39
27826;BMP280;15077;49.704;9.908;2024-03-23T15:09:18;97441.63;;;14.44
27826;BMP280;15077;49.704;9.908;2024-03-23T15:11:43;97439.00;;;14.46
27826;BMP280;15077;49.704;9.908;2024-03-23T15:14:09;97449.00;;;14.49